Time;durP1;ratioP1;P1;durP2;ratioP2;P2;SDS_P1;SDS_P2;PMS_P1;PMS_P2;Temp;Humidity;BMP_temperature;BMP_pressure;BME280_temperature;BME280_humidity;BME280_pressure;Samples;Min_cycle;Max_cycle;Signal;HPM_P1;HPM_P2
2022/06/28 00:01:53;;;;;;;12.20;7.75;;;;;;;24.72;53.53;95207.84;5041761;28;20052;-53
2022/06/28 00:04:19;;;;;;;11.30;9.48;;;;;;;24.73;53.47;95220.28;5045787;28;20025;-53
2022/06/28 00:06:44;;;;;;;9.73;7.15;;;;;;;24.70;53.42;95210.38;5039569;28;20029;-53
2022/06/28 00:09:11;;;;;;;13.48;8.38;;;;;;;24.70;53.70;95213.09;5043695;28;20021;-53
2022/06/28 00:11:37;;;;;;;33.78;28.13;;;;;;;24.68;53.65;95218.31;5041690;28;20954;-53
2022/06/28 00:14:03;;;;;;;55.00;39.72;;;;;;;24.65;53.54;95208.41;5045099;28;20025;-53
2022/06/28 00:16:28;;;;;;;10.75;7.53;;;;;;;24.66;53.51;95216.09;5033603;28;20152;-53
2022/06/28 00:18:54;;;;;;;8.38;5.90;;;;;;;24.61;53.77;95213.44;5042755;28;20508;-52
2022/06/28 00:21:19;;;;;;;8.45;6.07;;;;;;;24.61;53.90;95207.97;5034545;28;20010;-53
2022/06/28 00:23:45;;;;;;;9.15;5.65;;;;;;;24.62;53.80;95214.91;5041414;28;20097;-53
2022/06/28 00:26:11;;;;;;;9.60;5.82;;;;;;;24.58;54.08;95209.75;5039423;28;20354;-53
2022/06/28 00:28:37;;;;;;;8.90;6.43;;;;;;;24.59;53.51;95210.50;5040944;28;20487;-52
2022/06/28 00:31:03;;;;;;;9.63;6.80;;;;;;;24.58;53.79;95219.94;5041337;28;20264;-53
2022/06/28 00:33:28;;;;;;;11.40;6.32;;;;;;;24.58;54.00;95209.00;5036896;28;20548;-53
2022/06/28 00:35:54;;;;;;;9.82;5.53;;;;;;;24.55;53.70;95210.03;5039662;28;20113;-53
2022/06/28 00:38:19;;;;;;;8.60;5.80;;;;;;;24.54;54.10;95214.00;5041627;28;20025;-53
2022/06/28 00:40:48;;;;;;;7.55;5.47;;;;;;;24.55;53.48;95212.75;5042210;28;20029;-54
2022/06/28 00:43:14;;;;;;;9.40;5.03;;;;;;;24.50;53.73;95219.03;5024367;28;20090;-53
2022/06/28 00:45:41;;;;;;;7.80;5.18;;;;;;;24.49;54.03;95223.00;5022959;28;20048;-53
2022/06/28 00:48:06;;;;;;;6.72;4.75;;;;;;;24.49;53.39;95212.81;5023724;28;20713;-53
2022/06/28 00:50:34;;;;;;;7.10;5.43;;;;;;;24.49;53.99;95223.00;5041056;28;20028;-52
2022/06/28 00:53:09;;;;;;;7.68;4.28;;;;;;;24.44;53.73;95212.88;5042209;28;20071;-53
2022/06/28 00:55:35;;;;;;;6.25;4.22;;;;;;;24.40;53.93;95215.13;5043103;28;20072;-53
2022/06/28 00:58:01;;;;;;;7.68;5.55;;;;;;;24.36;54.01;95220.13;5037111;28;20043;-53
2022/06/28 01:00:27;;;;;;;5.95;4.53;;;;;;;24.37;54.26;95210.69;5041896;28;20087;-53
2022/06/28 01:02:53;;;;;;;7.65;4.70;;;;;;;24.40;54.14;95215.13;5042436;28;20130;-53
2022/06/28 01:05:19;;;;;;;7.00;5.05;;;;;;;24.36;53.82;95220.13;5042344;28;20549;-53
2022/06/28 01:07:44;;;;;;;6.80;4.53;;;;;;;24.36;53.91;95225.59;5038324;28;20025;-53
2022/06/28 01:10:10;;;;;;;8.13;4.55;;;;;;;24.33;53.74;95215.69;5039679;28;20028;-53
2022/06/28 01:12:35;;;;;;;6.55;4.80;;;;;;;24.33;54.20;95215.69;5042590;28;20099;-53
2022/06/28 01:15:01;;;;;;;8.57;5.13;;;;;;;24.32;54.03;95214.22;5041642;28;20025;-52
2022/06/28 01:17:26;;;;;;;7.07;4.75;;;;;;;24.30;53.73;95222.16;5037493;28;20059;-52
2022/06/28 01:19:51;;;;;;;9.52;4.68;;;;;;;24.33;54.21;95214.97;5042318;28;20122;-53
2022/06/28 01:22:17;;;;;;;6.75;4.75;;;;;;;24.30;53.80;95216.69;5042339;28;20025;-53
2022/06/28 01:24:43;;;;;;;7.47;4.47;;;;;;;24.25;54.09;95206.56;5024932;28;20033;-53
2022/06/28 01:27:08;;;;;;;7.25;5.10;;;;;;;24.26;53.78;95205.31;5024006;28;20466;-53
2022/06/28 01:29:34;;;;;;;7.35;4.85;;;;;;;24.22;54.44;95204.84;5020474;28;20037;-54
2022/06/28 01:31:59;;;;;;;8.25;4.88;;;;;;;24.18;54.37;95209.84;5014465;28;20064;-53
2022/06/28 01:34:25;;;;;;;6.75;5.20;;;;;;;24.21;54.27;95208.81;5025523;28;20086;-54
2022/06/28 01:36:50;;;;;;;8.32;5.43;;;;;;;24.21;54.18;95203.38;5038355;28;20036;-52
2022/06/28 01:39:15;;;;;;;6.15;4.90;;;;;;;24.19;54.11;95207.88;5041050;28;20411;-53
2022/06/28 01:41:43;;;;;;;9.00;5.15;;;;;;;24.17;54.08;95208.38;5012150;28;20021;-52
2022/06/28 01:44:09;;;;;;;5.40;4.63;;;;;;;24.19;54.34;95205.16;5025239;28;20044;-53
2022/06/28 01:46:35;;;;;;;6.22;4.78;;;;;;;24.12;54.53;95206.44;5036105;28;20723;-52
2022/06/28 01:49:01;;;;;;;6.68;4.63;;;;;;;24.13;54.41;95212.63;5040807;28;20070;-53
2022/06/28 01:51:26;;;;;;;6.90;4.97;;;;;;;24.11;54.56;95209.66;5041721;28;20454;-53
2022/06/28 01:53:52;;;;;;;6.53;4.90;;;;;;;24.12;54.37;95206.44;5022929;28;20457;-53
2022/06/28 01:56:17;;;;;;;7.55;4.80;;;;;;;24.10;54.19;95208.94;5037356;28;20091;-52
2022/06/28 01:58:43;;;;;;;7.95;4.90;;;;;;;24.10;54.65;95202.75;5022258;28;20492;-53
2022/06/28 02:01:08;;;;;;;6.80;4.85;;;;;;;24.07;54.36;95201.75;5039953;28;20699;-53
2022/06/28 02:03:34;;;;;;;8.05;4.72;;;;;;;24.04;54.35;95194.59;5041133;28;20707;-53
2022/06/28 02:05:59;;;;;;;6.30;4.53;;;;;;;24.05;54.31;95201.53;5038546;28;20083;-52
2022/06/28 02:08:25;;;;;;;8.55;4.82;;;;;;;24.04;54.59;95197.31;5038847;28;20025;-53
2022/06/28 02:10:50;;;;;;;7.35;5.78;;;;;;;24.05;54.33;95201.53;5030066;28;20033;-54
2022/06/28 02:13:16;;;;;;;7.50;4.80;;;;;;;24.02;54.16;95202.56;5042183;28;20284;-53
2022/06/28 02:15:41;;;;;;;12.45;5.30;;;;;;;24.03;54.69;95204.03;5041955;28;20071;-52
2022/06/28 02:18:07;;;;;;;7.03;5.15;;;;;;;23.99;54.83;95198.13;5040218;28;20055;-53
2022/06/28 02:20:33;;;;;;;6.82;4.72;;;;;;;24.00;54.75;95204.31;5035628;28;20039;-53
2022/06/28 02:22:59;;;;;;;7.13;4.47;;;;;;;24.00;54.49;95205.03;5023894;28;20036;-53
2022/06/28 02:25:24;;;;;;;7.93;5.32;;;;;;;23.94;54.94;95211.78;5043468;28;20025;-53
2022/06/28 02:27:51;;;;;;;9.85;5.55;;;;;;;23.95;54.50;95203.09;5042913;28;20047;-52
2022/06/28 02:30:17;;;;;;;5.90;4.60;;;;;;;23.95;54.87;95208.56;5029758;28;20467;-52
2022/06/28 02:32:42;;;;;;;8.70;5.57;;;;;;;23.89;54.89;95205.13;5033847;28;20045;-52
2022/06/28 02:40:36;;;;;;;8.75;5.68;;;;;;;23.88;54.42;95213.81;5034486;28;20068;-52
2022/06/28 02:43:01;;;;;;;5.68;4.93;;;;;;;23.86;54.42;95211.59;5041479;28;20017;-54
2022/06/28 02:45:29;;;;;;;7.22;5.05;;;;;;;23.86;54.76;95206.16;5045359;28;20044;-53
2022/06/28 02:47:55;;;;;;;8.18;5.03;;;;;;;23.88;54.68;95214.59;5043665;28;20970;-53
2022/06/28 02:50:21;;;;;;;9.02;5.15;;;;;;;23.86;55.02;95210.88;5044330;28;20569;-53
2022/06/28 02:52:46;;;;;;;7.68;5.47;;;;;;;23.84;54.70;95207.16;5043987;28;20029;-53
2022/06/28 02:55:12;;;;;;;7.30;5.03;;;;;;;23.81;55.10;95202.72;5045219;28;20075;-53
2022/06/28 02:57:37;;;;;;;6.75;5.07;;;;;;;23.84;54.88;95201.72;5038519;28;20412;-52
2022/06/28 03:00:08;;;;;;;9.20;5.45;;;;;;;23.84;54.82;95198.97;5044892;28;20029;-53
2022/06/28 03:02:35;;;;;;;8.25;4.43;;;;;;;23.85;54.22;95203.19;5026804;28;20040;-52
2022/06/28 03:05:05;;;;;;;6.50;4.93;;;;;;;23.84;54.08;95198.97;5043302;28;20017;-52
2022/06/28 03:07:31;;;;;;;7.38;5.07;;;;;;;23.81;54.75;95208.19;5043247;28;20021;-53
2022/06/28 03:09:56;;;;;;;7.53;4.75;;;;;;;23.76;54.21;95206.25;5044791;28;20032;-53
2022/06/28 03:12:22;;;;;;;7.65;5.00;;;;;;;23.78;54.66;95198.28;5043754;28;20021;-53
2022/06/28 03:14:47;;;;;;;8.05;4.90;;;;;;;23.72;54.55;95192.13;5044535;28;20025;-53
2022/06/28 03:17:13;;;;;;;7.80;4.95;;;;;;;23.73;54.62;95193.63;5025754;28;20075;-54
2022/06/28 03:19:38;;;;;;;8.63;4.55;;;;;;;23.71;54.44;95194.13;5043126;28;20029;-53
2022/06/28 03:22:04;;;;;;;7.47;5.18;;;;;;;23.73;54.56;95199.81;5042783;28;20013;-53
2022/06/28 03:24:29;;;;;;;8.20;4.75;;;;;;;23.74;54.80;95197.84;5042543;28;20048;-52
2022/06/28 03:26:54;;;;;;;7.78;5.07;;;;;;;23.70;54.81;95194.63;5044582;28;20404;-53
2022/06/28 03:29:20;;;;;;;7.18;5.13;;;;;;;23.69;54.40;95193.13;5043758;28;20466;-53
2022/06/28 03:31:45;;;;;;;7.78;4.57;;;;;;;23.67;54.81;95192.91;5042542;28;20049;-53
2022/06/28 03:34:11;;;;;;;8.25;4.68;;;;;;;23.68;55.03;95194.41;5043506;28;20028;-53
2022/06/28 03:36:36;;;;;;;8.57;5.35;;;;;;;23.70;54.98;95200.09;5040065;28;20074;-53
2022/06/28 03:39:02;;;;;;;6.05;4.60;;;;;;;23.68;55.02;95194.41;5037299;28;20033;-53
2022/06/28 03:41:28;;;;;;;8.18;5.50;;;;;;;23.64;55.46;95208.28;5040521;28;20021;-52
2022/06/28 03:43:53;;;;;;;7.18;5.03;;;;;;;23.64;55.77;95211.00;5029314;28;20483;-52
2022/06/28 03:46:19;;;;;;;10.13;5.35;;;;;;;23.68;55.27;95205.31;5030262;28;20025;-53
2022/06/28 03:48:45;;;;;;;7.90;5.50;;;;;;;23.68;55.40;95210.75;5031952;28;20631;-53
2022/06/28 03:51:11;;;;;;;9.25;5.57;;;;;;;23.69;55.94;95217.69;5030768;28;20075;-53
2022/06/28 03:53:36;;;;;;;7.57;5.20;;;;;;;23.66;56.64;95218.69;5031015;28;20063;-53
2022/06/28 03:56:02;;;;;;;10.20;5.60;;;;;;;23.71;57.07;95220.66;5032704;28;20021;-53
2022/06/28 03:58:27;;;;;;;10.02;5.65;;;;;;;23.70;57.73;95214.44;5029206;28;20489;-53
2022/06/28 04:00:53;;;;;;;8.98;5.80;;;;;;;23.71;57.44;95226.13;5027670;28;20559;-53
2022/06/28 04:03:18;;;;;;;10.85;5.90;;;;;;;23.68;57.25;95233.31;5030067;28;20060;-52
2022/06/28 04:05:44;;;;;;;12.68;6.50;;;;;;;23.66;57.08;95226.88;5030115;28;20025;-53
2022/06/28 04:08:09;;;;;;;12.95;7.20;;;;;;;23.69;57.20;95228.59;5011585;28;20029;-52
2022/06/28 04:10:35;;;;;;;11.95;7.10;;;;;;;23.74;56.78;95230.56;5023699;28;20025;-51
2022/06/28 04:13:01;;;;;;;16.02;7.13;;;;;;;23.71;57.29;95237.75;5032813;28;20025;-52
2022/06/28 04:15:26;;;;;;;12.65;7.30;;;;;;;23.79;57.11;95237.94;5033447;28;20535;-52
2022/06/28 04:17:52;;;;;;;10.63;6.80;;;;;;;23.84;57.42;95250.81;5013054;28;20427;-52
2022/06/28 04:20:17;;;;;;;12.45;7.03;;;;;;;23.86;57.12;95237.41;5043754;28;20047;-52
2022/06/28 04:22:43;;;;;;;14.07;7.10;;;;;;;23.93;57.29;95243.03;5044174;28;20027;-52
2022/06/28 04:25:08;;;;;;;11.60;7.32;;;;;;;24.00;56.65;95243.22;5031038;28;20028;-52
2022/06/28 04:27:34;;;;;;;11.45;6.80;;;;;;;24.08;56.33;95248.88;5043577;28;20455;-53
2022/06/28 04:29:59;;;;;;;14.45;7.18;;;;;;;24.14;56.21;95246.84;5030849;28;20026;-52
2022/06/28 04:32:25;;;;;;;10.85;6.97;;;;;;;24.21;56.10;95243.56;5022494;28;20420;-52
2022/06/28 04:34:51;;;;;;;11.98;6.63;;;;;;;24.30;55.66;95238.53;5029828;28;20090;-51
2022/06/28 04:37:16;;;;;;;12.68;7.15;;;;;;;24.38;55.09;95244.94;5024802;28;20029;-52
2022/06/28 04:39:42;;;;;;;13.23;6.82;;;;;;;24.51;54.68;95242.34;5034137;28;20341;-51
2022/06/28 04:42:07;;;;;;;11.95;6.82;;;;;;;24.64;54.54;95242.47;5031021;28;20615;-52
2022/06/28 04:44:33;;;;;;;12.32;6.85;;;;;;;24.72;54.18;95243.38;5031025;28;20061;-51
2022/06/28 04:47:00;;;;;;;10.30;6.57;;;;;;;24.87;53.95;95255.34;5034856;28;20549;-52
2022/06/28 04:49:25;;;;;;;11.15;6.38;;;;;;;24.99;53.01;95246.56;5038308;28;20026;-52
2022/06/28 04:51:51;;;;;;;10.57;6.60;;;;;;;25.10;52.96;95243.72;5024112;28;20105;-54
2022/06/28 04:54:16;;;;;;;11.02;6.10;;;;;;;25.18;52.93;95244.59;5036185;28;20419;-53
2022/06/28 04:56:42;;;;;;;11.43;7.55;;;;;;;25.28;52.78;95231.31;5026446;28;20026;-53
2022/06/28 04:59:07;;;;;;;13.15;7.95;;;;;;;25.50;52.39;95242.69;5039819;28;20549;-52
2022/06/28 05:01:33;;;;;;;12.20;7.13;;;;;;;25.58;52.01;95254.53;5041761;28;20013;-51
2022/06/28 05:03:58;;;;;;;11.10;7.25;;;;;;;25.80;51.50;95249.53;5039609;28;20025;-52
2022/06/28 05:06:24;;;;;;;13.95;6.93;;;;;;;25.94;51.34;95262.72;5027033;28;20049;-52
2022/06/28 05:08:49;;;;;;;11.73;7.10;;;;;;;25.79;51.01;95259.72;5033865;28;20449;-52
2022/06/28 05:11:14;;;;;;;12.90;8.93;;;;;;;25.96;50.43;95251.25;5036103;28;20281;-54
2022/06/28 05:13:40;;;;;;;15.75;7.32;;;;;;;26.13;49.99;95249.00;5041983;28;20009;-52
2022/06/28 05:16:05;;;;;;;14.65;7.97;;;;;;;26.05;50.27;95254.38;5033273;28;20044;-53
2022/06/28 05:18:31;;;;;;;13.75;8.73;;;;;;;26.26;50.08;95241.56;5029199;28;20041;-53
2022/06/28 05:20:57;;;;;;;20.27;11.23;;;;;;;26.24;49.51;95235.88;5026637;28;20037;-52
2022/06/28 05:23:23;;;;;;;15.85;9.98;;;;;;;26.12;49.93;95242.78;5027309;28;20024;-54
2022/06/28 05:25:48;;;;;;;15.75;9.35;;;;;;;26.12;49.97;95237.31;5032318;28;20025;-53
2022/06/28 05:28:14;;;;;;;16.55;10.48;;;;;;;26.34;49.62;95231.53;5040362;28;20511;-54
2022/06/28 05:30:39;;;;;;;18.55;9.88;;;;;;;26.19;50.35;95236.72;5038249;28;20504;-55
2022/06/28 05:33:05;;;;;;;16.50;9.23;;;;;;;26.01;50.26;95248.44;5042380;28;20040;-54
2022/06/28 05:35:31;;;;;;;17.73;9.32;;;;;;;25.94;50.50;95249.03;5039525;28;20049;-52
2022/06/28 05:37:57;;;;;;;19.10;9.75;;;;;;;25.97;50.46;95253.47;5041400;28;20134;-53
2022/06/28 05:40:23;;;;;;;16.30;9.38;;;;;;;25.79;51.13;95253.50;5031866;28;20029;-55
2022/06/28 05:42:48;;;;;;;18.00;9.10;;;;;;;26.03;50.91;95254.13;5039771;28;20025;-54
2022/06/28 05:45:13;;;;;;;11.90;8.43;;;;;;;25.98;50.83;95257.69;5027438;28;20432;-56
2022/06/28 05:47:39;;;;;;;14.15;8.23;;;;;;;25.89;50.91;95252.63;5022653;28;20029;-56
2022/06/28 05:50:05;;;;;;;14.15;8.35;;;;;;;25.97;50.98;95256.22;5029007;28;20017;-56
2022/06/28 05:52:30;;;;;;;19.35;8.60;;;;;;;25.97;50.57;95253.47;5027992;28;20034;-52
2022/06/28 05:54:56;;;;;;;12.98;7.40;;;;;;;26.12;50.03;95253.75;5028120;28;20029;-53
2022/06/28 05:57:21;;;;;;;14.05;7.68;;;;;;;25.99;49.70;95272.88;5024999;28;20044;-54
2022/06/28 05:59:47;;;;;;;12.25;8.18;;;;;;;26.15;49.93;95265.66;5022857;28;20025;-55
2022/06/28 06:02:12;;;;;;;15.52;7.50;;;;;;;26.17;49.87;95266.59;5024037;28;20523;-53
2022/06/28 06:04:38;;;;;;;13.77;7.65;;;;;;;26.24;49.64;95268.75;5024311;28;20033;-53
2022/06/28 06:07:04;;;;;;;11.10;7.25;;;;;;;26.15;49.62;95274.59;5029231;28;20024;-53
2022/06/28 06:09:30;;;;;;;9.80;7.05;;;;;;;26.15;50.01;95268.41;5025147;28;20079;-53
2022/06/28 06:11:55;;;;;;;12.15;6.70;;;;;;;26.35;49.59;95257.63;5026592;28;20555;-53
2022/06/28 06:14:21;;;;;;;11.00;6.88;;;;;;;26.31;49.60;95259.94;5030685;28;20036;-52
2022/06/28 06:16:50;;;;;;;11.73;6.90;;;;;;;26.55;48.85;95257.06;5013571;28;20116;-52
2022/06/28 06:19:16;;;;;;;11.13;6.65;;;;;;;26.79;48.56;95244.63;5035017;28;20024;-52
2022/06/28 06:21:41;;;;;;;10.80;7.10;;;;;;;26.86;47.93;95246.75;5044973;28;20083;-52
2022/06/28 06:24:07;;;;;;;10.32;6.55;;;;;;;27.20;47.25;95250.34;5043907;28;20048;-53
2022/06/28 06:26:33;;;;;;;11.85;6.70;;;;;;;27.18;47.17;95241.19;5043764;28;20033;-53
2022/06/28 06:28:59;;;;;;;12.85;6.80;;;;;;;27.02;47.29;95245.72;5043145;28;20091;-53
2022/06/28 06:31:24;;;;;;;8.77;5.60;;;;;;;26.97;47.78;95238.34;5022914;28;20518;-53
2022/06/28 06:33:51;;;;;;;10.38;5.80;;;;;;;27.03;47.98;95241.72;5042474;28;20033;-53
2022/06/28 06:36:17;;;;;;;13.77;6.80;;;;;;;27.02;47.53;95234.75;5041539;28;20095;-53
2022/06/28 06:38:42;;;;;;;9.48;6.32;;;;;;;26.97;47.92;95232.88;5044224;28;20036;-52
2022/06/28 06:41:08;;;;;;;9.07;5.85;;;;;;;27.14;47.98;95236.00;5038004;28;20032;-53
2022/06/28 06:43:34;;;;;;;8.93;5.75;;;;;;;27.16;47.82;95233.50;5040987;28;20424;-53
2022/06/28 06:45:59;;;;;;;11.55;6.35;;;;;;;27.15;47.79;95231.28;5032672;28;20029;-54
2022/06/28 06:48:24;;;;;;;12.57;6.88;;;;;;;27.11;47.67;95223.38;5034831;28;20553;-54
2022/06/28 06:50:50;;;;;;;12.70;7.28;;;;;;;27.08;48.03;95221.69;5033098;28;20600;-53
2022/06/28 06:53:16;;;;;;;10.18;6.07;;;;;;;27.08;48.33;95221.69;5029512;28;20469;-53
2022/06/28 06:55:41;;;;;;;11.27;6.13;;;;;;;27.15;48.08;95215.56;5028640;28;20041;-52
2022/06/28 06:58:07;;;;;;;8.63;5.35;;;;;;;27.10;48.23;95208.19;5031858;28;20373;-53
2022/06/28 07:00:34;;;;;;;12.15;5.82;;;;;;;26.99;48.71;95211.13;5030986;28;20032;-53
2022/06/28 07:03:02;;;;;;;9.75;5.57;;;;;;;27.02;48.47;95207.34;5033628;28;20102;-53
2022/06/28 07:05:28;;;;;;;11.25;5.70;;;;;;;26.98;48.23;95211.66;5031121;28;20065;-52
2022/06/28 07:07:53;;;;;;;9.63;6.03;;;;;;;26.90;48.51;95206.09;5037006;28;20040;-53
2022/06/28 07:10:18;;;;;;;7.97;5.80;;;;;;;26.78;49.27;95207.53;5029179;28;20025;-54
2022/06/28 07:12:44;;;;;;;9.98;5.90;;;;;;;26.89;49.32;95214.84;5015605;28;20028;-54
2022/06/28 07:15:10;;;;;;;9.73;5.22;;;;;;;26.81;49.52;95209.22;5027888;28;20033;-56
2022/06/28 07:17:35;;;;;;;9.18;5.75;;;;;;;26.76;49.54;95205.88;5034873;28;20038;-53
2022/06/28 07:20:01;;;;;;;9.73;5.60;;;;;;;26.71;49.65;95203.94;5033331;28;20032;-54
2022/06/28 07:22:26;;;;;;;14.30;7.20;;;;;;;26.74;49.37;95211.13;5033841;28;20036;-54
2022/06/28 07:24:53;;;;;;;10.45;5.60;;;;;;;26.71;49.39;95203.94;5038039;28;20033;-53
2022/06/28 07:27:19;;;;;;;13.95;6.18;;;;;;;26.69;49.59;95211.97;5040293;28;20633;-53
2022/06/28 07:29:45;;;;;;;11.20;5.65;;;;;;;26.72;48.90;95199.97;5044276;28;20029;-54
2022/06/28 07:32:10;;;;;;;8.93;5.43;;;;;;;26.67;48.79;95212.50;5041118;28;20037;-54
2022/06/28 07:34:36;;;;;;;9.20;5.43;;;;;;;26.69;48.52;95211.97;5045460;28;20025;-53
2022/06/28 07:37:01;;;;;;;9.00;5.20;;;;;;;26.70;48.20;95207.97;5040300;28;20029;-53
2022/06/28 07:39:27;;;;;;;10.80;5.13;;;;;;;26.72;47.40;95213.66;5036302;28;20025;-53
2022/06/28 07:41:53;;;;;;;7.85;4.82;;;;;;;26.75;47.05;95209.88;5044054;28;20029;-55
2022/06/28 07:44:19;;;;;;;13.85;5.63;;;;;;;26.73;47.56;95223.38;5034441;28;20025;-51
2022/06/28 07:46:45;;;;;;;10.23;5.25;;;;;;;26.75;47.82;95226.31;5032953;28;20059;-53
2022/06/28 07:49:10;;;;;;;10.32;5.65;;;;;;;26.77;47.97;95219.78;5021323;28;20021;-54
2022/06/28 07:54:20;;;;;;;11.98;5.57;;;;;;;26.85;47.68;95215.13;5028894;28;20404;-53
2022/06/28 07:56:46;;;;;;;8.82;5.47;;;;;;;26.78;48.02;95221.22;5031670;28;20029;-53
2022/06/28 07:59:11;;;;;;;8.25;5.75;;;;;;;26.77;48.17;95219.78;5041899;28;20064;-53
2022/06/28 08:01:37;;;;;;;8.77;5.18;;;;;;;26.81;48.45;95220.19;5042352;28;20503;-53
2022/06/28 08:04:02;;;;;;;9.05;5.10;;;;;;;26.78;47.22;95204.78;5043721;28;20032;-54
2022/06/28 08:06:28;;;;;;;10.07;5.22;;;;;;;26.83;47.48;95197.72;5038982;28;20036;-53
2022/06/28 08:08:53;;;;;;;7.80;4.72;;;;;;;26.84;47.55;95201.94;5033474;28;20146;-52
2022/06/28 08:11:19;;;;;;;7.35;4.40;;;;;;;26.84;47.87;95191.72;5036565;28;20080;-52
2022/06/28 08:13:47;;;;;;;8.73;4.68;;;;;;;26.88;46.63;95192.16;5037381;28;20647;-52
2022/06/28 08:16:13;;;;;;;9.20;4.80;;;;;;;26.95;46.06;95196.28;5033406;28;20127;-52
2022/06/28 08:18:38;;;;;;;8.85;4.97;;;;;;;26.93;46.88;95205.03;5040860;28;20025;-54
2022/06/28 08:21:05;;;;;;;6.40;4.60;;;;;;;26.91;46.83;95190.41;5034331;28;20017;-51
2022/06/28 08:23:30;;;;;;;7.07;4.50;;;;;;;26.90;47.34;95192.38;5025014;28;20055;-52
2022/06/28 08:25:56;;;;;;;8.43;5.53;;;;;;;26.94;46.95;95201.03;5043311;28;20496;-53
2022/06/28 08:28:21;;;;;;;7.47;4.97;;;;;;;27.00;46.03;95198.91;5039324;28;20052;-52
2022/06/28 08:30:47;;;;;;;7.97;4.85;;;;;;;26.98;46.66;95195.97;5034208;28;20094;-52
2022/06/28 08:33:12;;;;;;;10.05;4.85;;;;;;;26.94;47.18;95194.81;5040143;28;20048;-53
2022/06/28 08:35:38;;;;;;;8.63;5.10;;;;;;;26.89;47.39;95193.66;5035235;28;20040;-53
2022/06/28 08:38:06;;;;;;;9.35;4.60;;;;;;;26.95;46.48;95201.75;5030000;28;20033;-54
2022/06/28 08:40:33;;;;;;;6.28;4.68;;;;;;;26.94;46.79;95195.56;5028624;28;20037;-52
2022/06/28 08:42:58;;;;;;;5.30;4.00;;;;;;;26.87;47.37;95204.38;5016712;28;20029;-51
2022/06/28 08:45:24;;;;;;;6.82;4.40;;;;;;;26.91;47.08;95201.34;5034970;28;20025;-52
2022/06/28 08:47:51;;;;;;;5.40;3.40;;;;;;;26.91;45.22;95202.09;5029563;28;20060;-50
2022/06/28 08:50:33;;;;;;;6.88;3.90;;;;;;;26.89;45.58;95199.16;5037243;28;20114;-55
2022/06/28 08:53:03;;;;;;;6.50;4.10;;;;;;;26.96;45.96;95198.50;5035941;28;20056;-53
2022/06/28 08:55:29;;;;;;;4.22;3.40;;;;;;;26.93;46.55;95199.53;5037490;28;20044;-54
2022/06/28 08:57:55;;;;;;;4.53;3.30;;;;;;;26.97;45.79;95205.47;5034715;28;20427;-52
2022/06/28 09:00:20;;;;;;;4.70;3.55;;;;;;;26.98;46.51;95201.47;5043367;28;20033;-53
2022/06/28 09:02:46;;;;;;;4.72;3.20;;;;;;;27.02;46.55;95199.13;5041302;28;20475;-55
2022/06/28 09:05:12;;;;;;;6.00;3.65;;;;;;;27.01;45.80;95194.91;5019503;28;20392;-54
2022/06/28 09:07:37;;;;;;;5.40;4.00;;;;;;;27.04;46.35;95204.06;5040162;28;20100;-52
2022/06/28 09:10:03;;;;;;;7.30;3.90;;;;;;;27.02;45.97;95196.38;5032707;28;20036;-55
2022/06/28 09:12:29;;;;;;;5.95;3.70;;;;;;;27.05;46.42;95206.28;5027027;28;20773;-54
2022/06/28 09:14:56;;;;;;;5.13;3.42;;;;;;;26.82;47.18;95193.53;4998444;28;20013;-55
2022/06/28 09:17:29;;;;;;;6.22;3.83;;;;;;;26.47;47.18;95201.41;5038322;28;20139;-52
2022/06/28 09:19:59;;;;;;;5.68;3.42;;;;;;;26.36;48.73;95193.38;5039887;28;20242;-54
2022/06/28 09:22:45;;;;;;;6.47;3.67;;;;;;;26.63;48.14;95192.16;5036211;28;20092;-55
2022/06/28 09:25:13;;;;;;;5.38;3.60;;;;;;;26.76;49.62;95190.88;5035596;28;20619;-54
2022/06/28 09:27:40;;;;;;;8.95;4.18;;;;;;;27.00;50.35;95193.44;5013664;28;20091;-56
2022/06/28 09:30:12;;;;;;;11.23;4.25;;;;;;;27.14;50.23;95192.16;5030007;28;20037;-54
2022/06/28 09:32:38;;;;;;;12.40;6.57;;;;;;;27.34;49.79;95188.75;5039182;28;20251;-56
2022/06/28 09:35:04;;;;;;;13.63;7.47;;;;;;;27.50;48.87;95185.69;5022967;28;20419;-56
2022/06/28 09:37:50;;;;;;;9.43;6.13;;;;;;;27.55;48.09;95186.78;5022901;28;20154;-56
2022/06/28 09:40:32;;;;;;;11.55;6.55;;;;;;;27.58;47.62;95194.72;5037957;28;20083;-56
2022/06/28 09:43:13;;;;;;;12.50;5.32;;;;;;;27.65;47.18;95182.34;5038501;28;20036;-55
2022/06/28 09:45:40;;;;;;;8.18;4.05;;;;;;;27.77;46.00;95176.81;5012918;28;20102;-55
2022/06/28 09:48:06;;;;;;;7.10;4.40;;;;;;;27.87;46.01;95175.06;5022927;28;20058;-54
2022/06/28 09:50:34;;;;;;;10.68;4.45;;;;;;;28.05;46.22;95174.13;5038237;28;20036;-55
2022/06/28 09:53:00;;;;;;;12.07;5.60;;;;;;;28.17;45.40;95175.34;5031538;28;21764;-54
2022/06/28 09:55:27;;;;;;;6.45;4.30;;;;;;;28.33;45.37;95174.22;5024612;28;20507;-56
2022/06/28 09:57:53;;;;;;;7.40;4.43;;;;;;;28.46;44.82;95174.09;5041441;28;20492;-54
2022/06/28 10:00:21;;;;;;;8.93;4.75;;;;;;;28.65;44.87;95169.13;5028792;28;20052;-57
2022/06/28 10:02:47;;;;;;;8.65;4.88;;;;;;;28.65;44.41;95180.13;5038106;28;20029;-56
2022/06/28 10:05:13;;;;;;;7.05;4.20;;;;;;;28.78;44.10;95161.53;5031212;28;20055;-55
2022/06/28 10:07:39;;;;;;;6.63;4.07;;;;;;;28.96;44.58;95164.00;5036356;28;20028;-53
2022/06/28 10:10:06;;;;;;;13.32;9.15;;;;;;;29.05;43.82;95165.53;5034857;28;20405;-55
2022/06/28 10:15:19;;;;;;;7.40;6.55;;;;;;;29.28;44.31;95172.63;5022991;28;20036;-55
2022/06/28 10:18:04;;;;;;;7.63;5.90;;;;;;;29.37;43.28;95166.59;5021854;28;20024;-53
2022/06/28 10:20:31;;;;;;;7.55;4.68;;;;;;;29.45;43.51;95161.88;5040233;28;20023;-53
2022/06/28 10:23:23;;;;;;;8.98;4.50;;;;;;;29.57;43.16;95158.22;5036552;28;20058;-53
2022/06/28 10:26:12;;;;;;;8.02;5.25;;;;;;;29.58;43.43;95147.94;5012661;28;20045;-52
2022/06/28 10:28:51;;;;;;;10.55;6.97;;;;;;;29.71;43.06;95154.75;5020490;28;20037;-52
2022/06/28 10:31:23;;;;;;;5.50;3.83;;;;;;;29.74;42.90;95150.91;5037454;28;20490;-53
2022/06/28 10:33:49;;;;;;;5.28;3.50;;;;;;;29.87;42.61;95152.81;5002903;28;20052;-52
2022/06/28 10:36:17;;;;;;;4.03;3.00;;;;;;;29.93;42.09;95156.84;4996605;28;20431;-54
2022/06/28 10:39:08;;;;;;;5.50;3.60;;;;;;;29.95;42.26;95159.06;4985736;28;20093;-53
2022/06/28 10:41:38;;;;;;;5.80;3.67;;;;;;;30.01;42.44;95152.06;4984980;28;20128;-53
2022/06/28 10:44:12;;;;;;;;;;;;;;;30.04;41.75;95150.25;4985180;28;20061;-54
2022/06/28 10:46:39;;;;;;;6.88;3.22;;;;;;;30.06;41.46;95142.91;4993544;28;19928;-53
2022/06/28 10:49:09;;;;;;;6.65;3.75;;;;;;;30.21;41.44;95137.41;4983772;28;20141;-52
2022/06/28 10:51:35;;;;;;;5.15;3.88;;;;;;;30.21;41.13;95126.38;4990209;28;20579;-55
2022/06/28 10:54:06;;;;;;;5.00;3.90;;;;;;;30.37;40.41;95127.84;4994251;28;20057;-54
2022/06/28 10:56:41;;;;;;;4.07;3.10;;;;;;;30.50;40.23;95130.41;4988432;28;20026;-54
2022/06/28 10:59:10;;;;;;;4.60;3.10;;;;;;;30.34;40.54;95123.44;4994211;28;20034;-54
2022/06/28 11:01:38;;;;;;;4.70;3.40;;;;;;;30.45;40.35;95117.53;4981937;28;20110;-53
2022/06/28 11:04:22;;;;;;;4.68;3.22;;;;;;;30.44;40.29;95110.56;4995036;28;20033;-53
2022/06/28 11:06:57;;;;;;;4.57;3.35;;;;;;;30.42;39.99;95102.13;5002151;28;20038;-54
2022/06/28 11:09:46;;;;;;;5.75;3.92;;;;;;;30.38;40.26;95108.00;5000344;28;20065;-56
2022/06/28 11:12:12;;;;;;;6.43;3.65;;;;;;;30.43;39.64;95106.34;4991011;28;20049;-53
2022/06/28 11:14:57;;;;;;;6.03;3.30;;;;;;;30.43;39.67;95104.31;5003689;28;20060;-53
2022/06/28 11:17:30;;;;;;;5.57;3.35;;;;;;;30.36;39.92;95112.63;5004168;28;20044;-53
2022/06/28 11:19:57;;;;;;;8.10;3.72;;;;;;;30.38;39.47;95108.00;4988582;28;20030;-54
2022/06/28 11:22:54;;;;;;;5.07;3.40;;;;;;;30.40;39.09;95110.22;4990023;28;20678;-54
2022/06/28 11:25:24;;;;;;;68.85;55.10;;;;;;;30.53;39.23;95112.78;4970219;28;20143;-52
2022/06/28 11:27:56;;;;;;;4.68;2.90;;;;;;;30.55;38.83;95110.91;5001089;28;20116;-53
2022/06/28 11:30:29;;;;;;;14.32;13.05;;;;;;;30.64;38.15;95112.38;4997431;28;20045;-52
2022/06/28 11:32:55;;;;;;;43.53;35.78;;;;;;;30.68;38.41;95107.94;5018198;28;20128;-54
2022/06/28 11:35:26;;;;;;;8.00;6.95;;;;;;;30.65;37.91;95102.81;5034981;28;20029;-52
2022/06/28 11:37:54;;;;;;;43.53;33.72;;;;;;;30.59;38.45;95105.03;5023610;28;20033;-51
2022/06/28 11:40:30;;;;;;;57.85;39.30;;;;;;;30.66;37.94;95105.75;5037587;28;20033;-53